createdAt,value
2018-06-05T00:00:50.325Z,45.93
2018-06-05T00:03:17.888Z,49.00
2018-06-05T00:05:46.264Z,46.03
2018-06-05T00:08:15.575Z,45.43
2018-06-05T00:10:43.907Z,48.20
2018-06-05T00:13:11.527Z,49.77
2018-06-05T00:15:39.106Z,49.20
2018-06-05T00:18:06.691Z,47.60
2018-06-05T00:20:34.281Z,44.47
2018-06-05T00:23:01.864Z,44.77
2018-06-05T00:25:29.428Z,49.73
2018-06-05T00:27:57.813Z,42.33
2018-06-05T00:30:26.133Z,46.37
2018-06-05T00:32:53.709Z,44.53
2018-06-05T00:35:21.302Z,45.50
2018-06-05T00:37:49.656Z,52.70
2018-06-05T00:40:17.226Z,45.10
2018-06-05T00:42:44.836Z,47.78
2018-06-05T00:45:12.397Z,45.63
2018-06-05T00:47:39.965Z,43.90
2018-06-05T00:50:09.439Z,44.77
2018-06-05T00:52:37.774Z,46.00
2018-06-05T00:55:05.341Z,46.20
2018-06-05T00:57:32.941Z,45.67
2018-06-05T01:00:01.278Z,52.47
2018-06-05T01:02:28.846Z,49.20
2018-06-05T01:04:56.454Z,51.70
2018-06-05T01:07:24.021Z,54.27
2018-06-05T01:09:51.584Z,51.50
2018-06-05T01:12:19.209Z,51.93
2018-06-05T01:14:47.547Z,51.77
2018-06-05T01:17:15.125Z,50.37
2018-06-05T01:19:42.738Z,50.27
2018-06-05T01:22:10.310Z,52.13
2018-06-05T01:24:37.878Z,52.30
2018-06-05T01:27:05.479Z,50.17
2018-06-05T01:29:33.040Z,51.70
2018-06-05T01:32:00.601Z,52.83
2018-06-05T01:34:28.228Z,52.77
2018-06-05T01:36:55.802Z,51.40
2018-06-05T01:39:23.377Z,54.13
2018-06-05T01:41:50.990Z,52.43
2018-06-05T01:44:19.331Z,49.57
2018-06-05T01:46:46.899Z,50.90
2018-06-05T01:49:14.504Z,51.83
2018-06-05T01:51:42.074Z,48.30
2018-06-05T01:54:09.635Z,46.90
2018-06-05T01:56:37.878Z,49.73
2018-06-05T01:59:06.234Z,52.80
2018-06-05T02:01:33.804Z,51.30
2018-06-05T02:04:01.409Z,50.40
2018-06-05T02:06:28.971Z,56.88
2018-06-05T02:08:56.545Z,49.53
2018-06-05T02:11:24.151Z,47.80
2018-06-05T02:13:51.741Z,50.27
2018-06-05T02:16:19.308Z,47.73
2018-06-05T02:18:46.929Z,53.83
2018-06-05T02:21:14.496Z,55.50
2018-06-05T02:23:42.067Z,55.33
2018-06-05T02:26:10.448Z,52.90
2018-06-05T02:28:38.392Z,53.90
2018-06-05T02:31:05.960Z,51.83
2018-06-05T02:33:33.552Z,56.07
2018-06-05T02:36:01.115Z,50.40
2018-06-05T02:38:28.749Z,50.70
2018-06-05T02:40:56.778Z,55.23
2018-06-05T02:43:24.352Z,52.63
2018-06-05T02:45:51.921Z,52.93
2018-06-05T02:48:19.511Z,56.30
2018-06-05T02:50:47.089Z,56.47
2018-06-05T02:53:14.659Z,52.90
2018-06-05T02:55:42.259Z,57.97
2018-06-05T02:58:09.859Z,52.93
2018-06-05T03:00:37.434Z,56.30
2018-06-05T03:03:06.330Z,49.07
2018-06-05T03:05:33.872Z,52.83
2018-06-05T03:08:01.434Z,53.80
2018-06-05T03:10:29.052Z,55.53
2018-06-05T03:12:56.622Z,58.27
2018-06-05T03:15:24.193Z,54.70
2018-06-05T03:17:51.794Z,61.83
2018-06-05T03:20:20.131Z,57.00
2018-06-05T03:22:47.713Z,57.43
2018-06-05T03:25:15.686Z,56.50
2018-06-05T03:27:43.243Z,53.60
2018-06-05T03:30:10.815Z,57.17
2018-06-05T03:32:38.442Z,55.00
2018-06-05T03:35:06.010Z,62.13
2018-06-05T03:37:33.594Z,56.43
2018-06-05T03:40:01.209Z,62.60
2018-06-05T03:42:28.781Z,53.37
2018-06-05T03:44:56.341Z,52.53
2018-06-05T03:47:24.337Z,53.17
2018-06-05T03:49:51.909Z,54.77
2018-06-05T03:52:19.484Z,52.53
2018-06-05T03:54:47.104Z,58.47
2018-06-05T03:57:14.720Z,56.97
2018-06-05T03:59:42.240Z,57.40
2018-06-05T04:02:09.840Z,65.47
2018-06-05T04:04:37.405Z,58.60
2018-06-05T04:07:04.976Z,54.93
2018-06-05T04:09:32.602Z,55.53
2018-06-05T04:12:00.173Z,57.00
2018-06-05T04:14:27.733Z,58.93
2018-06-05T04:16:55.328Z,63.30
2018-06-05T04:19:22.934Z,56.63
2018-06-05T04:21:50.529Z,55.33
2018-06-05T04:24:18.143Z,50.60
2018-06-05T04:26:45.723Z,59.13
2018-06-05T04:29:13.281Z,52.90
2018-06-05T04:31:40.997Z,56.43
2018-06-05T04:34:09.294Z,58.00
2018-06-05T04:36:37.301Z,54.43
2018-06-05T04:39:04.905Z,56.67
2018-06-05T04:41:32.478Z,60.63
2018-06-05T04:44:00.047Z,54.03
2018-06-05T04:46:27.673Z,52.53
2018-06-05T04:48:55.239Z,55.73
2018-06-05T04:51:22.803Z,60.70
2018-06-05T04:53:50.451Z,55.40
2018-06-05T04:56:18.779Z,52.97
2018-06-05T04:58:46.350Z,54.50
2018-06-05T05:01:13.965Z,54.83
2018-06-05T05:03:41.533Z,56.00
2018-06-05T05:06:09.104Z,52.97
2018-06-05T05:08:36.708Z,50.73
2018-06-05T05:11:04.275Z,54.00
2018-06-05T05:13:31.860Z,54.17
2018-06-05T05:16:00.226Z,55.30
2018-06-05T05:18:27.831Z,52.07
2018-06-05T05:20:55.416Z,52.33
2018-06-05T05:23:23.449Z,49.80
2018-06-05T05:25:51.015Z,52.77
2018-06-05T05:28:18.592Z,53.57
2018-06-05T05:30:46.217Z,48.80
2018-06-05T05:33:13.772Z,49.30
2018-06-05T05:35:41.341Z,54.27
2018-06-05T05:38:09.994Z,58.42
2018-06-05T05:40:37.563Z,54.83
2018-06-05T05:43:05.128Z,50.67
2018-06-05T05:45:32.752Z,52.85
2018-06-05T05:48:00.322Z,53.87
2018-06-05T05:50:27.886Z,47.17
2018-06-05T05:52:55.494Z,50.53
2018-06-05T05:55:23.831Z,47.33
2018-06-05T05:57:51.387Z,45.83
2018-06-05T06:00:18.992Z,48.13
2018-06-05T06:02:47.334Z,50.03
2018-06-05T06:05:14.907Z,48.60
2018-06-05T06:07:43.186Z,45.30
2018-06-05T06:10:10.753Z,48.08
2018-06-05T06:12:38.362Z,47.00
2018-06-05T06:15:05.939Z,46.90
2018-06-05T06:17:33.500Z,45.13
2018-06-05T06:20:01.073Z,44.87
2018-06-05T06:22:28.677Z,50.43
2018-06-05T06:24:56.281Z,43.97
2018-06-05T06:27:23.849Z,45.67
2018-06-05T06:29:51.456Z,47.20
2018-06-05T06:32:20.026Z,42.47
2018-06-05T06:34:47.613Z,46.90
2018-06-05T06:37:15.220Z,41.80
2018-06-05T06:39:42.790Z,43.73
2018-06-05T06:42:10.359Z,41.07
2018-06-05T06:44:37.958Z,44.97
2018-06-05T06:47:06.329Z,42.50
2018-06-05T06:49:33.864Z,42.93
2018-06-05T06:52:02.048Z,41.97
2018-06-05T06:54:29.658Z,43.77
2018-06-05T06:56:57.177Z,43.70
2018-06-05T06:59:24.812Z,46.33
2018-06-05T07:01:52.373Z,39.53
2018-06-05T07:04:19.939Z,42.30
2018-06-05T07:06:48.947Z,42.57
2018-06-05T07:09:16.513Z,43.43
2018-06-05T07:11:44.079Z,41.90
2018-06-05T07:14:11.732Z,41.70
2018-06-05T07:16:39.311Z,38.33
2018-06-05T07:19:06.896Z,40.40
2018-06-05T07:21:35.343Z,41.83
2018-06-05T07:24:02.941Z,39.53
2018-06-05T07:26:30.490Z,37.03
2018-06-05T07:28:58.876Z,42.23
2018-06-05T07:31:27.243Z,38.30
2018-06-05T07:33:54.781Z,40.03
2018-06-05T07:36:22.397Z,41.97
2018-06-05T07:38:49.969Z,36.93
2018-06-05T07:41:17.536Z,39.17
2018-06-05T07:43:45.162Z,37.37
2018-06-05T07:46:13.532Z,39.53
2018-06-05T07:48:41.071Z,35.80
2018-06-05T07:51:08.719Z,35.97
2018-06-05T07:53:36.294Z,40.15
2018-06-05T07:56:03.867Z,35.60
2018-06-05T07:58:31.920Z,38.27
2018-06-05T08:00:59.495Z,37.17
2018-06-05T08:03:27.077Z,34.67
2018-06-05T08:05:55.472Z,37.13
2018-06-05T08:08:23.040Z,33.77
2018-06-05T08:10:50.605Z,38.57
2018-06-05T08:13:18.688Z,30.87
2018-06-05T08:15:46.261Z,35.33
2018-06-05T08:18:14.143Z,35.70
2018-06-05T08:20:42.634Z,33.17
2018-06-05T08:23:10.203Z,35.70
2018-06-05T08:25:37.779Z,33.72
2018-06-05T08:28:05.408Z,33.40
2018-06-05T08:30:32.975Z,34.83
2018-06-05T08:33:00.574Z,33.13
2018-06-05T08:35:29.443Z,37.33
2018-06-05T08:37:57.079Z,34.80
2018-06-05T08:40:24.571Z,34.95
2018-06-05T08:42:52.206Z,33.70
2018-06-05T08:45:19.772Z,32.55
2018-06-05T08:47:47.339Z,32.80
2018-06-05T08:50:15.510Z,36.03
2018-06-05T08:52:43.087Z,34.93
2018-06-05T08:55:10.657Z,31.00
2018-06-05T08:57:39.613Z,31.70
2018-06-05T09:00:07.175Z,31.03
2018-06-05T09:02:34.773Z,31.23
2018-06-05T09:05:02.753Z,31.40
2018-06-05T09:07:30.325Z,34.65
2018-06-05T09:09:57.895Z,32.67
2018-06-05T09:12:26.305Z,33.20
2018-06-05T09:14:53.877Z,31.57
2018-06-05T09:17:21.453Z,32.97
2018-06-05T09:19:49.074Z,31.70
2018-06-05T09:22:16.644Z,32.23
2018-06-05T09:24:44.210Z,32.13
2018-06-05T09:27:11.854Z,36.60
2018-06-05T09:29:39.427Z,32.43
2018-06-05T09:32:06.991Z,28.47
2018-06-05T09:34:34.621Z,30.70
2018-06-05T09:37:02.178Z,32.70
2018-06-05T09:39:30.514Z,29.37
2018-06-05T09:41:58.492Z,30.70
2018-06-05T09:44:26.058Z,31.93
2018-06-05T09:46:53.828Z,28.80
2018-06-05T09:49:22.603Z,31.27
2018-06-05T09:51:50.181Z,32.73
2018-06-05T09:54:17.742Z,28.77
2018-06-05T09:56:45.376Z,27.67
2018-06-05T09:59:12.988Z,30.27
2018-06-05T10:01:40.546Z,27.23
2018-06-05T10:04:08.931Z,26.90
2018-06-05T10:06:37.266Z,24.70
2018-06-05T10:09:04.842Z,27.20
2018-06-05T10:11:32.465Z,28.73
2018-06-05T10:14:00.042Z,26.23
2018-06-05T10:16:27.607Z,27.70
2018-06-05T10:18:55.217Z,27.93
2018-06-05T10:21:23.542Z,25.03
2018-06-05T10:23:51.122Z,29.20
2018-06-05T10:26:18.728Z,26.30
2018-06-05T10:28:47.058Z,27.77
2018-06-05T10:31:14.632Z,25.97
2018-06-05T10:33:42.253Z,27.70
2018-06-05T10:36:09.822Z,22.83
2018-06-05T10:38:37.387Z,21.77
2018-06-05T10:41:05.058Z,24.90
2018-06-05T10:43:32.586Z,20.13
2018-06-05T10:46:00.918Z,22.50
2018-06-05T10:48:28.529Z,23.23
2018-06-05T10:50:56.090Z,20.77
2018-06-05T10:53:23.653Z,21.27
2018-06-05T10:55:51.272Z,17.07
2018-06-05T10:58:18.841Z,19.93
2018-06-05T11:00:46.405Z,20.83
2018-06-05T11:03:14.009Z,17.80
2018-06-05T11:05:41.565Z,20.70
2018-06-05T11:08:09.133Z,20.83
2018-06-05T11:10:36.746Z,20.90
2018-06-05T11:13:04.309Z,19.57
2018-06-05T11:15:31.871Z,17.63
2018-06-05T11:17:59.482Z,18.37
2018-06-05T11:20:27.038Z,22.93
2018-06-05T11:22:54.604Z,19.00
2018-06-05T11:25:22.210Z,17.37
2018-06-05T11:27:50.027Z,20.00
2018-06-05T11:30:17.606Z,17.83
2018-06-05T11:32:45.249Z,15.07
2018-06-05T11:35:13.547Z,15.73
2018-06-05T11:37:41.104Z,13.90
2018-06-05T11:40:08.702Z,11.10
2018-06-05T11:42:36.261Z,11.93
2018-06-05T11:45:03.824Z,12.85
2018-06-05T11:47:32.413Z,12.07
2018-06-05T11:49:59.980Z,13.75
2018-06-05T11:52:27.538Z,10.50
2018-06-05T11:54:55.160Z,13.90
2018-06-05T11:57:22.724Z,10.53
2018-06-05T11:59:50.292Z,8.77
2018-06-05T12:02:17.888Z,10.10
2018-06-05T12:04:45.454Z,8.20
2018-06-05T12:07:13.780Z,10.33
2018-06-05T12:09:41.389Z,9.90
2018-06-05T12:12:09.051Z,10.77
2018-06-05T12:14:36.604Z,8.87
2018-06-05T12:17:04.750Z,10.23
2018-06-05T12:19:32.310Z,13.18
2018-06-05T12:21:59.868Z,11.17
2018-06-05T12:24:27.469Z,11.63
2018-06-05T12:26:55.025Z,13.53
2018-06-05T12:29:22.579Z,9.70
2018-06-05T12:31:50.630Z,10.63
2018-06-05T12:34:18.180Z,9.00
2018-06-05T12:36:45.753Z,9.97
2018-06-05T12:39:13.374Z,9.83
2018-06-05T12:41:40.940Z,10.67
2018-06-05T12:44:08.487Z,12.20
2018-06-05T12:46:36.087Z,9.90
2018-06-05T12:49:03.652Z,9.83
2018-06-05T12:51:31.249Z,10.70
2018-06-05T12:54:00.124Z,10.37
2018-06-05T12:56:27.673Z,9.70
2018-06-05T12:58:55.232Z,10.77
2018-06-05T13:01:22.838Z,13.93
2018-06-05T13:03:51.165Z,10.83
2018-06-05T13:06:18.715Z,10.50
2018-06-05T13:08:46.328Z,10.60
2018-06-05T13:11:13.876Z,11.83
2018-06-05T13:13:41.437Z,11.40
2018-06-05T13:16:17.493Z,13.13
2018-06-05T13:18:45.098Z,12.17
2018-06-05T13:21:12.612Z,11.63
2018-06-05T13:23:40.220Z,12.70
2018-06-05T13:26:07.821Z,11.20
2018-06-05T13:28:35.335Z,11.50
2018-06-05T13:31:03.223Z,15.10
2018-06-05T13:33:30.775Z,12.80
2018-06-05T13:35:58.683Z,10.73
2018-06-05T13:38:26.289Z,11.57
2018-06-05T13:40:54.622Z,11.03
2018-06-05T13:43:22.188Z,10.10
2018-06-05T13:45:49.799Z,9.83
2018-06-05T13:48:18.119Z,11.03
2018-06-05T13:50:45.679Z,12.23
2018-06-05T13:53:13.289Z,13.37
2018-06-05T13:55:41.616Z,12.67
2018-06-05T13:58:09.186Z,10.77
2018-06-05T14:00:36.787Z,9.70
2018-06-05T14:03:04.353Z,13.80
2018-06-05T14:05:32.678Z,10.30
2018-06-05T14:08:00.291Z,10.50
2018-06-05T14:10:28.626Z,10.10
2018-06-05T14:12:56.184Z,11.30
2018-06-05T14:15:23.823Z,16.10
2018-06-05T14:17:51.385Z,9.77
2018-06-05T14:20:18.949Z,10.20
2018-06-05T14:22:46.577Z,15.83
2018-06-05T14:25:14.140Z,9.77
2018-06-05T14:27:42.466Z,9.70
2018-06-05T14:30:10.101Z,9.47
2018-06-05T14:32:37.651Z,9.83
2018-06-05T14:35:05.210Z,10.90
2018-06-05T14:37:33.579Z,9.43
2018-06-05T14:40:01.941Z,12.67
2018-06-05T14:42:29.458Z,10.07
2018-06-05T14:44:57.678Z,9.97
2018-06-05T14:47:25.234Z,9.07
2018-06-05T14:49:52.776Z,11.27
2018-06-05T14:52:22.903Z,9.30
2018-06-05T14:54:50.523Z,12.93
2018-06-05T14:57:18.046Z,11.37
2018-06-05T14:59:46.506Z,10.87
2018-06-05T15:02:14.086Z,10.37
2018-06-05T15:04:41.626Z,10.60
2018-06-05T15:07:09.237Z,10.37
2018-06-05T15:09:37.552Z,9.13
2018-06-05T15:12:05.103Z,8.00
2018-06-05T15:14:33.507Z,10.93
2018-06-05T15:17:01.073Z,8.63
2018-06-05T15:19:28.640Z,10.43
2018-06-05T15:21:56.301Z,10.70
2018-06-05T15:24:23.872Z,10.27
2018-06-05T15:26:51.443Z,10.70
2018-06-05T15:29:19.086Z,11.85
2018-06-05T15:31:46.637Z,9.97
2018-06-05T15:34:14.247Z,10.57
2018-06-05T15:36:41.804Z,12.13
2018-06-05T15:39:10.129Z,10.93
2018-06-05T15:41:37.689Z,9.67
2018-06-05T15:44:06.307Z,12.17
2018-06-05T15:46:33.872Z,9.57
2018-06-05T15:49:01.449Z,8.90
2018-06-05T15:51:29.848Z,9.40
2018-06-05T15:53:57.404Z,11.10
2018-06-05T15:56:24.958Z,11.53
2018-06-05T15:58:53.332Z,10.03
2018-06-05T16:01:20.888Z,10.83
2018-06-05T16:03:48.452Z,12.13
2018-06-05T16:06:16.852Z,10.50
2018-06-05T16:08:44.442Z,10.77
2018-06-05T16:11:11.973Z,10.03
2018-06-05T16:13:41.320Z,10.27
2018-06-05T16:16:08.890Z,11.47
2018-06-05T16:18:36.446Z,12.37
2018-06-05T16:21:04.403Z,12.13
2018-06-05T16:23:32.099Z,9.40
2018-06-05T16:25:59.591Z,10.43
2018-06-05T16:28:27.613Z,11.10
2018-06-05T16:30:55.178Z,10.30
2018-06-05T16:33:22.759Z,11.82
2018-06-05T16:35:50.376Z,10.50
2018-06-05T16:38:17.943Z,10.60
2018-06-05T16:40:45.497Z,10.97
2018-06-05T16:43:13.096Z,10.73
2018-06-05T16:45:40.891Z,10.40
2018-06-05T16:48:09.224Z,11.10
2018-06-05T16:50:37.664Z,11.13
2018-06-05T16:53:05.221Z,12.27
2018-06-05T16:55:32.778Z,13.60
2018-06-05T16:58:00.899Z,10.17
2018-06-05T17:00:28.469Z,10.37
2018-06-05T17:02:56.019Z,11.00
2018-06-05T17:05:24.769Z,11.53
2018-06-05T17:07:52.320Z,11.03
2018-06-05T17:10:19.904Z,11.70
2018-06-05T17:12:48.067Z,9.23
2018-06-05T17:15:15.572Z,9.77
2018-06-05T17:17:43.157Z,9.63
2018-06-05T17:20:10.785Z,10.38
2018-06-05T17:22:38.341Z,9.87
2018-06-05T17:25:05.896Z,9.70
2018-06-05T17:27:33.565Z,13.03
2018-06-05T17:30:01.058Z,11.07
2018-06-05T17:32:28.616Z,10.17
2018-06-05T17:34:56.992Z,10.05
2018-06-05T17:37:24.565Z,11.05
2018-06-05T17:39:52.118Z,10.10
2018-06-05T17:42:19.733Z,10.13
2018-06-05T17:44:47.293Z,10.25
2018-06-05T17:47:14.849Z,9.47
2018-06-05T17:49:42.928Z,10.73
2018-06-05T17:52:10.492Z,11.57
2018-06-05T17:54:38.056Z,8.97
2018-06-05T17:57:05.664Z,9.20
2018-06-05T17:59:33.214Z,8.83
2018-06-05T18:02:00.798Z,8.80
2018-06-05T18:04:28.933Z,9.43
2018-06-05T18:06:56.489Z,9.50
2018-06-05T18:09:24.070Z,11.77
2018-06-05T18:11:51.739Z,11.57
2018-06-05T18:14:19.308Z,9.87
2018-06-05T18:16:47.091Z,10.97
2018-06-05T18:19:16.035Z,8.80
2018-06-05T18:21:43.591Z,9.27
2018-06-05T18:24:11.154Z,10.70
2018-06-05T18:26:38.789Z,8.87
2018-06-05T18:29:06.333Z,9.03
2018-06-05T18:31:33.898Z,11.07
2018-06-05T18:34:02.265Z,12.63
2018-06-05T18:36:29.823Z,12.53
2018-06-05T18:38:57.381Z,14.87
2018-06-05T18:41:24.990Z,14.83
2018-06-05T18:43:52.599Z,16.07
2018-06-05T18:46:20.155Z,19.10
2018-06-05T18:48:48.082Z,17.23
2018-06-05T18:53:55.383Z,20.23
2018-06-05T18:56:22.948Z,17.30
2018-06-05T18:58:50.518Z,18.23
2018-06-05T19:01:18.959Z,19.40
2018-06-05T19:03:47.285Z,21.30
2018-06-05T19:06:14.850Z,20.57
2018-06-05T19:08:42.513Z,23.97
2018-06-05T19:11:10.088Z,20.23
2018-06-05T19:13:37.672Z,22.80
2018-06-05T19:16:06.497Z,22.20
2018-06-05T19:18:34.064Z,25.33
2018-06-05T19:21:01.636Z,23.90
2018-06-05T19:23:29.726Z,24.90
2018-06-05T19:25:57.293Z,23.67
2018-06-05T19:28:24.851Z,25.50
2018-06-05T19:30:52.453Z,24.97
2018-06-05T19:33:20.022Z,24.40
2018-06-05T19:35:48.348Z,22.53
2018-06-05T19:38:16.527Z,23.40
2018-06-05T19:40:44.110Z,26.97
2018-06-05T19:43:11.671Z,24.90
2018-06-05T19:45:39.276Z,27.80
2018-06-05T19:48:06.843Z,26.37
2018-06-05T19:50:34.406Z,24.37
2018-06-05T19:53:02.016Z,24.77
2018-06-05T19:55:29.580Z,24.77
2018-06-05T19:57:58.326Z,26.30
2018-06-05T20:00:26.006Z,27.33
2018-06-05T20:02:53.595Z,26.97
2018-06-05T20:05:21.168Z,27.93
2018-06-05T20:07:48.776Z,28.40
2018-06-05T20:10:16.339Z,26.80
2018-06-05T20:12:43.896Z,32.40
2018-06-05T20:15:11.541Z,28.83
2018-06-05T20:17:39.105Z,28.53
2018-06-05T20:20:06.702Z,27.80
2018-06-05T20:22:34.308Z,27.43
2018-06-05T20:25:03.700Z,30.00
2018-06-05T20:27:32.035Z,31.97
2018-06-05T20:30:00.873Z,29.20
2018-06-05T20:32:29.222Z,30.23
2018-06-05T20:34:56.780Z,33.30
2018-06-05T20:37:24.389Z,32.97
2018-06-05T20:39:51.966Z,34.47
2018-06-05T20:42:19.528Z,33.87
2018-06-05T20:44:47.139Z,33.57
2018-06-05T20:47:14.732Z,34.83
2018-06-05T20:49:42.290Z,36.75
2018-06-05T20:52:11.663Z,36.37
2018-06-05T20:54:37.990Z,40.53
2018-06-05T20:57:05.548Z,44.00
2018-06-05T20:59:33.159Z,44.97
2018-06-05T21:02:00.724Z,43.77
2018-06-05T21:04:28.296Z,47.70
2018-06-05T21:06:55.927Z,48.83
2018-06-05T21:09:24.255Z,50.40
2018-06-05T21:11:51.824Z,48.93
2018-06-05T21:14:19.467Z,51.07
2018-06-05T21:16:47.035Z,52.90
2018-06-05T21:19:14.596Z,52.80
2018-06-05T21:21:42.255Z,54.63
2018-06-05T21:24:09.881Z,55.67
2018-06-05T21:26:37.397Z,60.17
2018-06-05T21:29:05.001Z,59.60
2018-06-05T21:31:33.329Z,61.30
2018-06-05T21:34:00.886Z,59.83
2018-06-05T21:36:28.528Z,63.93
2018-06-05T21:38:56.072Z,67.77
2018-06-05T21:41:24.405Z,60.00
2018-06-05T21:43:52.043Z,66.47
2018-06-05T21:46:19.599Z,71.90
2018-06-05T21:48:47.154Z,70.63
2018-06-05T21:51:14.766Z,72.23
2018-06-05T21:53:42.322Z,73.03
2018-06-05T21:56:09.890Z,78.12
2018-06-05T21:58:37.494Z,69.53
2018-06-05T22:01:05.058Z,79.05
2018-06-05T22:03:32.679Z,79.67
2018-06-05T22:06:00.279Z,79.90
2018-06-05T22:08:27.842Z,76.93
2018-06-05T22:10:55.410Z,79.23
2018-06-05T22:13:23.003Z,85.25
2018-06-05T22:15:50.558Z,82.23
2018-06-05T22:18:18.123Z,79.33
2018-06-05T22:20:45.735Z,77.00
2018-06-05T22:23:14.075Z,77.47
2018-06-05T22:25:41.638Z,81.47
2018-06-05T22:28:09.266Z,86.37
2018-06-05T22:30:36.828Z,86.55
2018-06-05T22:33:04.390Z,84.93
2018-06-05T22:35:31.989Z,80.93
2018-06-05T22:37:59.549Z,79.83
2018-06-05T22:40:27.114Z,82.97
2018-06-05T22:42:54.702Z,80.80
2018-06-05T22:45:23.038Z,91.37
2018-06-05T22:47:50.603Z,83.63
2018-06-05T22:50:18.659Z,92.28
2018-06-05T22:52:46.218Z,83.50
2018-06-05T22:55:13.782Z,84.57
2018-06-05T22:57:41.388Z,85.33
2018-06-05T23:00:09.729Z,83.47
2018-06-05T23:02:37.302Z,89.37
2018-06-05T23:05:04.900Z,87.60
2018-06-05T23:07:33.238Z,90.97
2018-06-05T23:10:00.807Z,89.93
2018-06-05T23:12:28.771Z,89.10
2018-06-05T23:14:56.345Z,93.60
2018-06-05T23:17:23.898Z,90.63
2018-06-05T23:19:51.491Z,91.03
2018-06-05T23:22:19.826Z,92.43
2018-06-05T23:24:47.385Z,84.27
2018-06-05T23:27:14.993Z,95.47
2018-06-05T23:29:43.336Z,91.07
2018-06-05T23:32:10.908Z,91.50
2018-06-05T23:34:39.431Z,93.40
2018-06-05T23:37:07.052Z,88.10
2018-06-05T23:39:34.619Z,94.53
2018-06-05T23:42:02.216Z,91.03
2018-06-05T23:44:29.776Z,89.03
2018-06-05T23:46:57.353Z,88.93
2018-06-05T23:49:24.967Z,97.60
2018-06-05T23:51:52.520Z,98.03
2018-06-05T23:54:20.116Z,97.70
2018-06-05T23:56:48.130Z,97.27
2018-06-05T23:59:15.694Z,107.70
